Time;durP1;ratioP1;P1;durP2;ratioP2;P2;SDS_P1;SDS_P2;PMS_P1;PMS_P2;Temp;Humidity;BMP_temperature;BMP_pressure;BME280_temperature;BME280_humidity;BME280_pressure;Samples;Min_cycle;Max_cycle;Signal;HPM_P1;HPM_P2
2022/06/25 00:02:10;;;;;;;13.52;5.20;;;;;;;21.15;54.41;100484.22;5052022;28;20039;-86
2022/06/25 00:07:21;;;;;;;14.02;5.65;;;;;;;21.06;55.32;100481.00;5063161;28;20106;-84
2022/06/25 00:09:52;;;;;;;14.02;5.38;;;;;;;21.07;55.26;100479.09;5040839;28;20056;-84
2022/06/25 00:12:32;;;;;;;14.15;5.32;;;;;;;20.96;55.30;100466.25;5047442;28;20500;-85
2022/06/25 00:15:03;;;;;;;12.80;5.00;;;;;;;21.00;55.73;100479.22;5053934;28;20105;-85
2022/06/25 00:17:38;;;;;;;12.27;5.05;;;;;;;21.11;55.44;100477.56;5022410;28;20219;-85
2022/06/25 00:20:06;;;;;;;9.15;5.30;;;;;;;21.12;55.57;100462.84;5066747;28;20452;-85
2022/06/25 00:22:32;;;;;;;13.63;5.75;;;;;;;21.15;54.63;100451.41;5032919;28;20067;-86
2022/06/25 00:24:59;;;;;;;16.50;5.13;;;;;;;21.27;54.08;100459.63;5024106;28;20037;-87
2022/06/25 00:27:26;;;;;;;12.27;4.55;;;;;;;21.36;52.95;100468.31;5032707;28;20449;-85
2022/06/25 00:29:54;;;;;;;10.60;4.50;;;;;;;21.33;53.16;100468.78;5028643;28;20124;-85
2022/06/25 00:32:20;;;;;;;16.55;4.47;;;;;;;21.31;53.20;100454.53;5052214;28;20137;-84
2022/06/25 00:34:46;;;;;;;10.35;4.03;;;;;;;21.44;52.09;100470.72;5053861;28;20028;-85
2022/06/25 00:37:11;;;;;;;7.20;3.33;;;;;;;21.52;49.72;100475.84;5021682;28;20040;-84
2022/06/25 00:39:37;;;;;;;8.80;3.58;;;;;;;21.55;50.25;100469.06;5053969;28;20044;-85
2022/06/25 00:42:09;;;;;;;9.05;3.13;;;;;;;21.52;48.16;100459.44;5027813;28;20043;-85
2022/06/25 00:44:36;;;;;;;8.38;2.70;;;;;;;21.57;47.66;100456.00;5052701;28;20075;-85
2022/06/25 00:47:09;;;;;;;8.75;4.65;;;;;;;21.69;47.38;100465.03;5055905;28;20048;-84
2022/06/25 00:49:35;;;;;;;4.30;3.15;;;;;;;21.67;47.25;100464.41;5034184;28;20107;-84
2022/06/25 00:52:06;;;;;;;6.57;2.95;;;;;;;21.78;46.78;100458.09;5031780;28;20492;-84
2022/06/25 00:54:37;;;;;;;3.85;2.80;;;;;;;21.72;46.30;100450.84;5034103;28;20094;-83
2022/06/25 00:57:27;;;;;;;10.35;2.90;;;;;;;21.90;46.26;100460.81;5043160;28;20142;-85
2022/06/25 01:00:03;;;;;;;7.72;2.83;;;;;;;21.90;46.12;100458.91;5059074;28;20105;-83
2022/06/25 01:02:30;;;;;;;6.90;2.88;;;;;;;21.99;45.93;100462.13;5046204;28;20137;-84
2022/06/25 01:04:57;;;;;;;5.95;2.63;;;;;;;22.03;45.47;100457.84;5025857;28;20052;-86
2022/06/25 01:07:25;;;;;;;6.43;2.83;;;;;;;22.07;45.66;100461.72;5038732;28;20106;-85
2022/06/25 01:09:51;;;;;;;7.47;2.60;;;;;;;22.15;45.53;100457.81;5035404;28;20041;-85
2022/06/25 01:12:16;;;;;;;6.90;2.60;;;;;;;22.10;45.45;100452.19;5034740;28;20088;-84
2022/06/25 01:14:42;;;;;;;7.43;2.67;;;;;;;22.17;44.91;100457.53;5060214;28;20043;-83
2022/06/25 01:17:18;;;;;;;8.68;2.63;;;;;;;22.10;45.41;100447.56;5042832;28;20036;-84
2022/06/25 01:19:45;;;;;;;6.30;2.72;;;;;;;22.11;45.58;100453.88;5074313;28;20037;-85
2022/06/25 01:22:12;;;;;;;4.55;2.80;;;;;;;22.06;45.85;100457.34;5042431;28;20048;-84
2022/06/25 01:24:41;;;;;;;4.50;2.70;;;;;;;22.04;46.18;100454.00;5065032;28;20067;-86
2022/06/25 01:27:14;;;;;;;10.68;2.58;;;;;;;22.13;45.57;100455.28;5070674;28;20060;-85
2022/06/25 01:29:42;;;;;;;6.00;2.58;;;;;;;22.10;45.65;100458.53;5020677;28;20089;-86
2022/06/25 01:32:07;;;;;;;5.93;2.50;;;;;;;22.04;46.34;100454.00;5017083;28;20039;-86
2022/06/25 01:34:33;;;;;;;9.15;2.80;;;;;;;22.02;46.23;100458.06;5027540;28;20037;-86
2022/06/25 01:36:59;;;;;;;7.68;2.60;;;;;;;21.93;46.36;100452.13;5053490;28;20060;-85
2022/06/25 01:39:25;;;;;;;4.38;2.70;;;;;;;21.99;46.23;100453.91;5043873;28;20075;-84
2022/06/25 01:41:54;;;;;;;5.22;2.80;;;;;;;21.96;46.06;100451.66;5030622;28;20047;-83
2022/06/25 01:44:20;;;;;;;6.35;2.83;;;;;;;21.82;46.18;100436.56;5036640;28;20182;-85
2022/06/25 01:46:45;;;;;;;5.55;2.67;;;;;;;21.78;46.14;100438.13;5037194;28;20044;-85
2022/06/25 01:49:12;;;;;;;7.07;2.65;;;;;;;21.79;46.85;100461.66;5042351;28;20056;-85
2022/06/25 01:51:40;;;;;;;4.78;2.65;;;;;;;21.79;46.61;100453.47;5049427;28;20511;-85
2022/06/25 01:54:07;;;;;;;9.23;2.90;;;;;;;21.77;46.83;100452.88;5018125;28;20033;-85
2022/06/25 01:56:32;;;;;;;7.53;2.60;;;;;;;21.74;46.81;100453.34;5027962;28;20044;-84
2022/06/25 01:58:58;;;;;;;7.25;2.45;;;;;;;21.69;46.92;100449.44;5052853;28;20404;-85
2022/06/25 02:01:25;;;;;;;7.70;2.90;;;;;;;21.63;47.16;100455.88;5049092;28;20036;-84
2022/06/25 02:04:02;;;;;;;8.75;2.90;;;;;;;21.65;47.26;100461.91;5044920;28;20499;-84
2022/06/25 02:06:30;;;;;;;8.68;2.72;;;;;;;21.61;47.08;100449.81;5030277;28;20072;-84
2022/06/25 02:08:59;;;;;;;4.90;2.40;;;;;;;21.52;47.57;100451.25;5068544;28;20063;-85
2022/06/25 02:11:25;;;;;;;5.30;2.88;;;;;;;21.56;47.61;100452.41;5040036;28;20040;-85
2022/06/25 02:13:53;;;;;;;7.13;2.80;;;;;;;21.43;47.87;100436.25;5041695;28;20033;-84
2022/06/25 02:16:20;;;;;;;6.20;2.63;;;;;;;21.31;48.04;100430.75;5071103;28;20071;-85
2022/06/25 02:18:45;;;;;;;8.98;2.75;;;;;;;21.46;48.05;100458.47;5053936;28;20090;-86
2022/06/25 02:21:13;;;;;;;5.93;2.70;;;;;;;21.49;47.95;100460.75;5056629;28;20064;-85
2022/06/25 02:23:39;;;;;;;4.72;2.90;;;;;;;21.38;48.29;100458.81;5049394;28;20100;-84
2022/06/25 02:26:04;;;;;;;4.28;2.75;;;;;;;21.35;48.38;100450.25;5065028;28;20093;-85
2022/06/25 02:28:31;;;;;;;6.93;2.80;;;;;;;21.29;48.39;100441.91;5054248;28;20037;-85
2022/06/25 02:31:01;;;;;;;5.43;2.95;;;;;;;21.35;48.58;100466.66;5057811;28;20028;-84
2022/06/25 02:33:27;;;;;;;6.28;3.00;;;;;;;21.11;48.92;100454.84;5072081;28;20029;-85
2022/06/25 02:35:56;;;;;;;5.00;3.10;;;;;;;21.07;49.13;100446.28;5052045;28;20043;-85
2022/06/25 02:38:21;;;;;;;10.40;3.05;;;;;;;21.25;48.98;100472.69;5076596;28;20121;-85
2022/06/25 02:40:48;;;;;;;6.57;2.78;;;;;;;21.19;49.34;100463.56;5044039;28;20485;-85
2022/06/25 02:43:14;;;;;;;8.90;3.25;;;;;;;21.29;49.13;100479.38;5043523;28;20040;-86
2022/06/25 02:45:45;;;;;;;6.88;2.97;;;;;;;21.35;49.19;100485.78;5072739;28;20133;-85
2022/06/25 02:48:12;;;;;;;6.20;2.60;;;;;;;21.31;49.16;100476.41;5039200;28;20106;-85
2022/06/25 02:50:41;;;;;;;5.55;3.00;;;;;;;21.34;49.19;100486.88;5037227;28;20114;-85
2022/06/25 02:53:07;;;;;;;7.28;2.67;;;;;;;21.45;48.97;100491.56;5053665;28;20032;-85
2022/06/25 03:01:02;;;;;;;5.60;3.15;;;;;;;21.61;48.64;100499.03;5058782;28;20497;-84
2022/06/25 03:03:28;;;;;;;8.45;3.05;;;;;;;21.78;48.74;100503.81;5028635;28;20125;-85
2022/06/25 03:05:54;;;;;;;6.13;3.00;;;;;;;21.87;48.37;100507.84;5032673;28;20044;-86
2022/06/25 03:08:23;;;;;;;7.07;3.97;;;;;;;21.84;48.22;100502.81;5054535;28;20041;-85
2022/06/25 03:10:51;;;;;;;8.05;3.35;;;;;;;21.70;48.94;100497.63;5067057;28;20029;-86
2022/06/25 03:13:19;;;;;;;6.15;3.10;;;;;;;21.79;48.71;100499.97;5051941;28;20047;-85
2022/06/25 03:15:46;;;;;;;4.95;2.90;;;;;;;21.93;48.53;100509.59;5081256;28;20411;-85
2022/06/25 03:18:16;;;;;;;7.38;3.30;;;;;;;22.01;48.49;100505.66;5022687;28;20421;-85
2022/06/25 03:20:44;;;;;;;6.60;3.30;;;;;;;22.05;48.76;100501.38;5050110;28;20040;-85
2022/06/25 03:23:12;;;;;;;6.55;3.50;;;;;;;22.14;48.30;100508.13;5029426;28;20036;-85
2022/06/25 03:25:38;;;;;;;6.53;3.67;;;;;;;22.07;48.49;100507.44;5065842;28;20024;-84
2022/06/25 03:28:10;;;;;;;9.15;3.53;;;;;;;22.11;48.33;100498.50;5077884;28;20045;-85
2022/06/25 03:30:40;;;;;;;11.30;3.80;;;;;;;22.19;48.24;100504.69;5053359;28;20063;-85
2022/06/25 03:33:06;;;;;;;7.05;3.75;;;;;;;22.26;48.22;100506.22;5028315;28;20127;-85
2022/06/25 03:35:35;;;;;;;10.73;3.50;;;;;;;22.39;48.16;100521.56;5054963;28;20058;-86
2022/06/25 03:38:06;;;;;;;11.43;3.63;;;;;;;22.18;48.49;100516.72;5051990;28;20121;-85
2022/06/25 03:40:33;;;;;;;11.25;3.60;;;;;;;22.33;48.30;100515.13;5039565;28;20072;-86
2022/06/25 03:42:59;;;;;;;7.60;3.50;;;;;;;22.39;48.24;100526.22;5052613;28;20040;-86
2022/06/25 03:45:25;;;;;;;8.15;4.13;;;;;;;22.29;48.57;100524.13;5036260;28;20436;-86
2022/06/25 03:47:52;;;;;;;10.20;4.30;;;;;;;22.25;48.85;100520.19;5039850;28;20077;-85
2022/06/25 03:50:20;;;;;;;8.98;3.90;;;;;;;22.35;48.75;100528.59;5067818;28;20141;-86
2022/06/25 03:52:47;;;;;;;9.18;4.07;;;;;;;22.25;48.82;100522.91;5053526;28;20036;-85
2022/06/25 03:55:14;;;;;;;11.60;3.92;;;;;;;22.29;49.75;100527.69;5022776;28;20468;-85
2022/06/25 03:57:40;;;;;;;8.65;3.90;;;;;;;22.17;49.84;100518.59;5038292;28;20107;-86
2022/06/25 04:00:06;;;;;;;7.35;3.97;;;;;;;22.10;50.33;100512.44;5053823;28;20732;-85
2022/06/25 04:02:35;;;;;;;11.18;3.80;;;;;;;22.38;49.83;100525.38;5032689;28;20037;-85
2022/06/25 04:05:01;;;;;;;16.05;3.92;;;;;;;22.45;50.11;100542.53;5051033;28;20435;-85
2022/06/25 04:07:30;;;;;;;7.75;4.30;;;;;;;22.40;50.10;100539.66;5032374;28;20531;-86
2022/06/25 04:09:57;;;;;;;11.50;4.88;;;;;;;22.46;49.93;100538.69;5065980;28;20381;-86
2022/06/25 04:12:23;;;;;;;10.43;4.30;;;;;;;22.33;50.43;100536.22;5053078;28;20157;-84
2022/06/25 04:14:49;;;;;;;9.85;4.82;;;;;;;22.32;50.88;100542.78;5070926;28;20043;-85
2022/06/25 04:17:19;;;;;;;10.88;4.90;;;;;;;22.38;50.96;100547.28;5054009;28;20055;-84
2022/06/25 04:19:44;;;;;;;14.65;5.22;;;;;;;22.39;50.85;100548.13;5054533;28;20036;-85
2022/06/25 04:22:10;;;;;;;15.32;5.18;;;;;;;22.61;50.51;100553.78;5033082;28;20405;-85
2022/06/25 04:24:40;;;;;;;15.02;5.40;;;;;;;22.93;49.86;100552.22;5030524;28;20060;-87
2022/06/25 04:29:03;;;;;;;12.68;4.70;;;;;;;23.21;49.02;100560.72;5035486;28;20033;-85
2022/06/25 04:29:53;;;;;;;11.75;4.93;;;;;;;23.38;48.54;100565.13;5073945;28;20040;-86
2022/06/25 04:32:19;;;;;;;22.25;5.20;;;;;;;23.63;48.13;100568.56;5036104;28;20463;-85
2022/06/25 04:34:52;;;;;;;14.30;5.70;;;;;;;23.93;47.13;100562.75;5035509;28;20472;-85
2022/06/25 04:37:20;;;;;;;18.83;5.70;;;;;;;24.06;47.06;100561.53;5066082;28;20048;-88
2022/06/25 04:39:48;;;;;;;14.98;4.97;;;;;;;24.30;46.89;100562.97;5052020;28;20492;-85
2022/06/25 04:42:15;;;;;;;18.15;5.28;;;;;;;24.40;45.84;100568.59;5019255;28;20040;-85
2022/06/25 04:44:42;;;;;;;10.63;5.10;;;;;;;24.58;45.19;100567.50;5047797;28;20683;-83
2022/06/25 04:47:11;;;;;;;10.75;5.40;;;;;;;24.83;44.84;100555.94;5068051;28;20102;-83
2022/06/25 04:49:39;;;;;;;12.07;4.78;;;;;;;25.21;44.53;100556.06;5068301;28;20052;-83
2022/06/25 04:52:11;;;;;;;17.23;5.00;;;;;;;25.42;43.71;100563.41;5068207;28;20044;-82
2022/06/25 04:54:37;;;;;;;15.27;4.93;;;;;;;25.52;43.60;100570.09;5043408;28;20040;-85
2022/06/25 04:57:08;;;;;;;11.82;4.60;;;;;;;25.59;43.39;100574.31;5051143;28;20032;-85
2022/06/25 04:59:36;;;;;;;15.23;4.75;;;;;;;25.61;43.91;100582.28;5053135;28;20032;-82
2022/06/25 05:02:03;;;;;;;12.40;5.30;;;;;;;25.74;43.77;100570.84;5046870;28;20085;-85
2022/06/25 05:04:28;;;;;;;11.13;4.88;;;;;;;25.76;43.69;100574.16;5070321;28;20031;-79
2022/06/25 05:06:58;;;;;;;9.48;4.93;;;;;;;25.65;43.48;100584.25;5039383;28;20128;-81
2022/06/25 05:09:26;;;;;;;11.57;5.45;;;;;;;25.81;43.64;100584.38;5069880;28;20373;-81
2022/06/25 05:12:01;;;;;;;14.05;5.90;;;;;;;26.17;42.95;100595.66;5053523;28;20032;-86
2022/06/25 05:14:28;;;;;;;21.60;5.65;;;;;;;26.21;42.78;100596.78;5053230;28;20048;-83
2022/06/25 05:16:56;;;;;;;14.52;6.00;;;;;;;26.13;43.09;100589.88;5055214;28;20097;-86
2022/06/25 05:19:31;;;;;;;14.40;5.60;;;;;;;26.18;43.22;100595.41;5060768;28;20059;-81
2022/06/25 05:21:56;;;;;;;17.27;6.13;;;;;;;25.93;43.71;100582.28;5049047;28;20040;-84
2022/06/25 05:24:22;;;;;;;13.48;6.22;;;;;;;25.87;44.19;100600.72;5040842;28;20481;-79
2022/06/25 05:26:47;;;;;;;24.33;6.65;;;;;;;26.04;43.58;100602.47;5070234;28;20449;-78
2022/06/25 05:29:14;;;;;;;18.98;8.48;;;;;;;25.82;43.84;100586.84;5065051;28;20029;-79
2022/06/25 05:31:39;;;;;;;22.80;6.75;;;;;;;26.20;43.03;100595.13;5069726;28;20055;-78
2022/06/25 05:34:05;;;;;;;18.65;5.80;;;;;;;26.26;42.59;100583.88;5070310;28;20121;-77
2022/06/25 05:36:30;;;;;;;13.88;6.05;;;;;;;25.98;43.08;100587.00;5038781;28;20024;-82
2022/06/25 05:38:56;;;;;;;15.90;5.72;;;;;;;26.23;42.04;100584.41;5041415;28;20047;-81
2022/06/25 05:41:22;;;;;;;9.77;5.53;;;;;;;26.20;42.25;100584.94;5032411;28;20036;-80
2022/06/25 05:43:50;;;;;;;17.95;5.55;;;;;;;26.13;42.26;100565.06;5034139;28;20051;-82
2022/06/25 05:46:15;;;;;;;11.88;5.80;;;;;;;26.37;42.32;100578.44;5032528;28;20044;-80
2022/06/25 05:48:42;;;;;;;23.02;6.10;;;;;;;26.23;42.60;100570.63;5069035;28;20113;-82
2022/06/25 05:51:08;;;;;;;19.48;6.55;;;;;;;26.17;42.51;100584.63;5050170;28;20052;-83
2022/06/25 05:53:36;;;;;;;17.63;6.82;;;;;;;26.20;40.19;100590.47;5034814;28;20043;-83
2022/06/25 05:56:06;;;;;;;19.77;4.78;;;;;;;26.15;39.61;100590.41;5059523;28;20039;-84
2022/06/25 05:58:34;;;;;;;11.60;5.10;;;;;;;26.21;39.62;100596.78;5074258;28;20044;-82
2022/06/25 06:01:00;;;;;;;10.60;4.47;;;;;;;26.13;39.91;100570.59;5044547;28;20488;-83
2022/06/25 06:03:27;;;;;;;18.90;5.35;;;;;;;26.44;39.69;100592.78;5029830;28;20033;-82
2022/06/25 06:06:04;;;;;;;15.75;9.90;;;;;;;26.52;39.45;100575.72;5039805;28;20037;-83
2022/06/25 06:08:31;;;;;;;16.33;9.25;;;;;;;27.08;38.73;100595.22;5076195;28;20111;-82
2022/06/25 06:10:58;;;;;;;7.95;3.20;;;;;;;27.50;37.44;100585.94;5056069;28;20484;-83
2022/06/25 06:13:33;;;;;;;9.68;5.47;;;;;;;27.65;37.22;100571.31;5078215;28;20028;-82
2022/06/25 06:16:04;;;;;;;6.55;3.67;;;;;;;28.11;36.83;100581.50;5075800;28;20033;-82
2022/06/25 06:18:34;;;;;;;13.13;4.90;;;;;;;28.25;36.23;100565.97;5021822;28;20179;-83
2022/06/25 06:21:01;;;;;;;11.75;6.97;;;;;;;28.55;35.73;100578.06;5047743;28;20064;-81
2022/06/25 06:23:29;;;;;;;7.57;3.63;;;;;;;28.80;35.09;100550.28;5036366;28;20029;-82
2022/06/25 06:25:55;;;;;;;21.52;14.77;;;;;;;29.01;34.92;100573.13;5077043;28;20120;-81
2022/06/25 06:28:22;;;;;;;17.70;4.53;;;;;;;29.33;34.08;100566.25;5048068;28;20036;-82
2022/06/25 06:30:48;;;;;;;9.27;3.72;;;;;;;29.69;33.29;100563.25;5065955;28;20068;-82
2022/06/25 06:33:13;;;;;;;10.70;4.80;;;;;;;29.94;33.56;100570.47;5055593;28;20063;-82
2022/06/25 06:35:39;;;;;;;15.10;5.57;;;;;;;30.04;33.13;100569.53;5041765;28;20044;-81
2022/06/25 06:38:04;;;;;;;12.82;6.43;;;;;;;30.32;32.50;100581.75;5036983;28;20044;-82
2022/06/25 06:40:30;;;;;;;10.95;6.43;;;;;;;30.37;32.22;100567.81;5055622;28;20051;-83
2022/06/25 06:42:57;;;;;;;6.50;4.38;;;;;;;30.50;32.31;100574.56;5053764;28;20040;-82
2022/06/25 06:45:23;;;;;;;6.65;3.72;;;;;;;30.65;31.90;100568.84;5037619;28;20028;-82
2022/06/25 06:47:49;;;;;;;7.78;4.68;;;;;;;30.70;32.48;100566.00;5039366;28;20408;-82
2022/06/25 06:50:15;;;;;;;9.88;6.20;;;;;;;31.00;32.22;100574.19;5054290;28;20109;-81
2022/06/25 06:52:43;;;;;;;8.23;4.40;;;;;;;31.07;31.34;100574.66;5049052;28;20048;-81
2022/06/25 06:55:09;;;;;;;16.33;7.15;;;;;;;31.08;31.81;100570.78;5018939;28;20045;-81
2022/06/25 06:57:37;;;;;;;8.68;4.95;;;;;;;31.24;31.08;100566.63;5038534;28;20042;-81
2022/06/25 07:00:09;;;;;;;14.23;11.45;;;;;;;31.28;31.57;100564.91;5076263;28;20047;-84
2022/06/25 07:02:35;;;;;;;276.63;36.38;;;;;;;31.46;31.45;100565.19;5040007;28;20032;-81
2022/06/25 07:05:01;;;;;;;129.98;20.98;;;;;;;31.75;30.99;100563.03;5073301;28;20036;-81
2022/06/25 07:07:30;;;;;;;30.15;8.15;;;;;;;31.78;30.19;100556.03;5034561;28;20091;-81
2022/06/25 07:09:56;;;;;;;85.05;15.05;;;;;;;31.91;30.04;100576.63;5054629;28;20052;-80
2022/06/25 07:12:23;;;;;;;17.58;5.68;;;;;;;32.12;29.57;100577.94;5050575;28;20032;-80
2022/06/25 07:14:52;;;;;;;55.95;11.27;;;;;;;32.13;29.30;100582.34;5052574;28;20108;-83
2022/06/25 07:17:18;;;;;;;29.95;8.52;;;;;;;32.24;29.86;100576.59;5052386;28;20041;-83
2022/06/25 07:19:54;;;;;;;11.15;4.13;;;;;;;32.32;29.09;100581.44;5077027;28;20051;-87
2022/06/25 07:22:22;;;;;;;11.80;4.30;;;;;;;32.60;28.83;100579.50;5073428;28;20041;-84
2022/06/25 07:24:51;;;;;;;20.67;6.57;;;;;;;33.08;28.52;100570.63;5052175;28;20101;-81
2022/06/25 07:27:17;;;;;;;11.13;4.55;;;;;;;33.48;27.74;100565.22;5040075;28;20090;-88
2022/06/25 07:29:46;;;;;;;5.38;3.88;;;;;;;34.09;27.78;100582.38;5041544;28;20039;-82
2022/06/25 07:32:13;;;;;;;7.32;3.55;;;;;;;34.33;25.77;100576.38;5041084;28;20144;-80
2022/06/25 07:34:39;;;;;;;6.45;3.72;;;;;;;34.52;25.49;100576.09;5060375;28;20028;-84
2022/06/25 07:37:08;;;;;;;6.95;3.53;;;;;;;34.66;25.45;100578.78;5027526;28;20039;-86
2022/06/25 07:39:37;;;;;;;11.95;3.47;;;;;;;34.64;25.49;100570.75;5053619;28;21078;-84
2022/06/25 07:42:07;;;;;;;184.70;21.88;;;;;;;34.66;25.49;100564.84;5072234;28;20040;-85
2022/06/25 07:44:34;;;;;;;68.82;12.30;;;;;;;34.21;26.32;100582.56;5054961;28;20043;-84
2022/06/25 07:47:10;;;;;;;44.90;9.88;;;;;;;33.42;27.16;100552.56;5033433;28;20124;-81
2022/06/25 07:52:57;;;;;;;17.38;6.03;;;;;;;33.59;27.14;100583.34;5035936;28;20441;-83
2022/06/25 07:55:44;;;;;;;12.88;4.70;;;;;;;33.57;27.37;100571.69;5054194;28;20041;-83
2022/06/25 07:58:11;;;;;;;11.30;3.88;;;;;;;33.67;27.42;100559.47;5046904;28;20088;-85
2022/06/25 08:00:36;;;;;;;7.80;3.72;;;;;;;33.18;27.20;100569.59;5052926;28;20104;-88
2022/06/25 08:03:25;;;;;;;7.72;3.50;;;;;;;33.48;27.48;100575.53;5036641;28;20064;-88
2022/06/25 08:05:53;;;;;;;9.32;3.90;;;;;;;33.59;27.82;100571.38;5057389;28;20033;-87
2022/06/25 08:08:21;;;;;;;14.05;5.85;;;;;;;33.51;27.75;100567.38;5057692;28;20040;-86
2022/06/25 08:10:47;;;;;;;31.15;5.28;;;;;;;34.00;27.60;100561.94;5052945;28;20029;-84
2022/06/25 08:13:12;;;;;;;6.78;4.00;;;;;;;33.96;27.30;100561.75;5051848;28;20543;-80
2022/06/25 08:15:39;;;;;;;7.65;3.78;;;;;;;34.30;28.28;100565.84;5049660;28;20470;-82
2022/06/25 08:18:05;;;;;;;6.82;3.47;;;;;;;34.33;26.75;100567.19;5038901;28;20110;-83
2022/06/25 08:20:31;;;;;;;7.07;3.80;;;;;;;33.71;27.31;100566.03;5050155;28;20087;-81
2022/06/25 08:22:58;;;;;;;7.43;3.60;;;;;;;33.74;28.22;100559.84;5056762;28;20548;-83
2022/06/25 08:25:26;;;;;;;9.77;4.30;;;;;;;33.69;27.10;100565.53;5052107;28;20143;-82
2022/06/25 08:28:04;;;;;;;9.77;3.88;;;;;;;33.62;27.23;100563.22;5044618;28;20048;-84
2022/06/25 08:30:52;;;;;;;11.30;3.90;;;;;;;34.06;27.28;100560.63;5049816;28;20139;-85
2022/06/25 08:33:22;;;;;;;13.82;3.78;;;;;;;34.77;26.91;100573.69;5050125;28;20388;-82
2022/06/25 08:35:51;;;;;;;9.52;3.40;;;;;;;34.81;25.52;100569.13;5034654;28;20029;-87
2022/06/25 08:38:17;;;;;;;11.88;3.70;;;;;;;35.74;24.45;100572.56;5032312;28;20037;-82
2022/06/25 08:40:44;;;;;;;11.88;3.60;;;;;;;35.55;23.87;100565.34;5051840;28;20116;-84
2022/06/25 08:43:09;;;;;;;11.45;3.60;;;;;;;36.32;23.29;100571.06;5050444;28;20053;-83
2022/06/25 08:45:40;;;;;;;12.07;3.58;;;;;;;36.69;23.38;100558.19;5044944;28;20168;-86
2022/06/25 08:48:37;;;;;;;8.15;3.50;;;;;;;37.39;22.66;100554.81;5050820;28;20049;-84
2022/06/25 08:51:04;;;;;;;6.28;3.30;;;;;;;37.62;21.54;100568.47;5035940;28;20048;-84
2022/06/25 08:53:40;;;;;;;4.55;3.22;;;;;;;37.85;21.74;100566.06;5038012;28;20123;-84
2022/06/25 08:56:14;;;;;;;12.35;9.63;;;;;;;38.18;21.90;100571.63;5054964;28;20144;-86
2022/06/25 08:58:44;;;;;;;12.73;11.43;;;;;;;38.34;21.13;100571.75;5042990;28;20389;-84
2022/06/25 09:01:11;;;;;;;6.22;3.15;;;;;;;37.41;21.66;100571.28;5052917;28;20047;-84
2022/06/25 09:03:41;;;;;;;6.53;3.28;;;;;;;36.74;22.78;100582.38;5067001;28;20324;-84
2022/06/25 09:06:16;;;;;;;8.07;3.13;;;;;;;36.73;23.03;100587.13;5032510;28;20048;-82
2022/06/25 09:08:42;;;;;;;9.68;3.15;;;;;;;37.43;22.00;100578.19;5075598;28;20043;-83
2022/06/25 09:11:08;;;;;;;7.10;3.00;;;;;;;36.63;25.51;100570.75;5054590;28;20486;-84
2022/06/25 09:13:34;;;;;;;5.93;3.00;;;;;;;34.43;31.65;100583.63;5030227;28;20128;-83
2022/06/25 09:15:59;;;;;;;6.57;3.00;;;;;;;33.04;33.78;100574.34;5024661;28;20055;-81
2022/06/25 09:18:26;;;;;;;7.28;3.05;;;;;;;33.00;34.59;100590.88;5066685;28;20115;-82
2022/06/25 09:21:08;;;;;;;7.80;3.17;;;;;;;33.45;33.94;100595.69;5068014;28;20572;-82
2022/06/25 09:23:38;;;;;;;6.72;2.90;;;;;;;33.13;34.46;100586.41;5048308;28;20156;-81
2022/06/25 09:26:11;;;;;;;4.05;2.83;;;;;;;33.60;34.19;100581.41;5053601;28;20050;-82
2022/06/25 09:28:41;;;;;;;6.28;4.13;;;;;;;34.81;31.87;100597.84;5049383;28;20139;-84
2022/06/25 09:31:07;;;;;;;10.15;3.35;;;;;;;35.03;30.73;100582.94;5037426;28;20443;-81
2022/06/25 09:33:34;;;;;;;5.30;2.88;;;;;;;34.61;30.91;100585.34;5071412;28;20040;-82
2022/06/25 09:36:03;;;;;;;6.60;3.10;;;;;;;33.91;32.55;100561.09;5048141;28;20125;-82
2022/06/25 09:38:31;;;;;;;9.52;4.28;;;;;;;34.53;32.20;100574.94;5052486;28;20044;-81
2022/06/25 09:40:59;;;;;;;6.82;3.95;;;;;;;33.65;33.45;100584.06;5035842;28;20037;-80
2022/06/25 09:43:35;;;;;;;4.75;2.78;;;;;;;32.83;35.02;100594.31;5030687;28;20516;-82
2022/06/25 09:46:06;;;;;;;7.85;3.28;;;;;;;32.68;35.50;100589.88;5063600;28;20050;-85
2022/06/25 09:48:36;;;;;;;6.93;3.10;;;;;;;31.73;37.43;100604.19;5052771;28;20035;-83
2022/06/25 09:51:06;;;;;;;5.65;3.05;;;;;;;31.58;37.92;100596.09;5025501;28;20765;-82
2022/06/25 09:53:33;;;;;;;7.07;3.10;;;;;;;32.86;35.31;100584.50;5067384;28;20491;-82
2022/06/25 09:56:03;;;;;;;7.53;3.20;;;;;;;31.41;37.04;100580.00;5051223;28;20185;-82
2022/06/25 09:58:32;;;;;;;5.88;3.50;;;;;;;30.57;38.18;100575.03;5042318;28;20068;-81
2022/06/25 10:00:57;;;;;;;5.55;4.22;;;;;;;30.00;39.50;100579.56;5039044;28;20423;-81
2022/06/25 10:03:26;;;;;;;6.00;3.30;;;;;;;30.22;39.14;100593.72;5068441;28;20037;-81
2022/06/25 10:05:58;;;;;;;8.38;3.50;;;;;;;30.02;40.17;100597.56;5017726;28;20048;-84
2022/06/25 10:08:27;;;;;;;5.85;3.30;;;;;;;29.22;41.63;100590.44;5031281;28;20053;-87
2022/06/25 10:10:53;;;;;;;7.38;3.20;;;;;;;31.12;38.56;100596.81;5051056;28;20480;-85
2022/06/25 10:13:19;;;;;;;7.20;2.97;;;;;;;32.42;35.81;100602.66;5036525;28;20028;-84
2022/06/25 10:15:47;;;;;;;9.93;3.22;;;;;;;34.44;32.29;100585.25;5046029;28;20084;-83
2022/06/25 10:18:14;;;;;;;4.97;3.00;;;;;;;34.67;30.64;100578.44;5052180;28;20060;-84
2022/06/25 10:20:41;;;;;;;7.13;3.45;;;;;;;33.79;31.95;100595.94;5030312;28;20462;-87
2022/06/25 10:23:11;;;;;;;10.85;2.92;;;;;;;32.86;34.18;100578.94;5023373;28;20059;-87
2022/06/25 10:25:43;;;;;;;7.20;3.00;;;;;;;32.74;34.70;100598.97;5058995;28;20124;-84
2022/06/25 10:28:36;;;;;;;15.02;3.67;;;;;;;34.00;32.75;100589.84;5037066;28;20033;-86
2022/06/25 10:31:12;;;;;;;8.40;3.15;;;;;;;32.92;34.57;100588.81;5064680;28;20097;-82
2022/06/25 10:34:05;;;;;;;11.25;2.90;;;;;;;32.39;35.90;100629.97;5058449;28;20029;-83
2022/06/25 10:36:52;;;;;;;12.48;4.20;;;;;;;30.98;38.26;100618.13;5031999;28;20054;-82
2022/06/25 10:39:26;;;;;;;14.05;3.70;;;;;;;30.55;39.11;100620.84;5052095;28;20044;-83
2022/06/25 10:45:44;;;;;;;9.85;3.20;;;;;;;29.56;40.44;100630.34;5066401;28;20877;-83
2022/06/25 10:48:09;;;;;;;9.38;5.13;;;;;;;28.84;41.29;100636.28;5045729;28;20114;-82
2022/06/25 10:50:37;;;;;;;5.13;3.05;;;;;;;27.88;43.09;100605.00;5053162;28;20491;-86
2022/06/25 10:53:08;;;;;;;6.07;2.90;;;;;;;28.75;41.13;100616.69;5047913;28;20103;-82
2022/06/25 10:55:57;;;;;;;5.68;3.00;;;;;;;29.31;40.73;100614.75;5066721;28;20071;-84
2022/06/25 10:58:50;;;;;;;5.57;3.00;;;;;;;30.13;39.27;100609.34;5040433;28;20123;-85
2022/06/25 11:01:31;;;;;;;6.00;2.40;;;;;;;30.31;39.28;100606.97;5050434;28;20059;-85
2022/06/25 11:03:59;;;;;;;3.92;2.80;;;;;;;30.33;39.69;100599.19;5032709;28;20037;-85
2022/06/25 11:06:32;;;;;;;6.43;2.58;;;;;;;30.98;38.37;100593.94;5048665;28;20058;-84
2022/06/25 11:09:25;;;;;;;3.45;2.38;;;;;;;30.68;38.76;100628.47;5053848;28;20055;-84
2022/06/25 11:11:57;;;;;;;6.18;2.90;;;;;;;30.26;39.72;100632.81;5046384;28;20033;-83
2022/06/25 11:14:24;;;;;;;3.33;2.60;;;;;;;29.19;41.80;100627.00;5071112;28;20055;-82
2022/06/25 11:16:54;;;;;;;3.95;2.55;;;;;;;29.20;41.55;100625.88;5052934;28;20050;-86
2022/06/25 11:19:25;;;;;;;8.27;3.10;;;;;;;29.02;42.34;100626.50;5068715;28;20584;-84
2022/06/25 11:21:54;;;;;;;5.20;2.90;;;;;;;28.27;43.90;100634.81;5034863;28;20120;-81
2022/06/25 11:24:26;;;;;;;5.30;2.95;;;;;;;27.20;46.18;100625.38;5058994;28;20036;-84
2022/06/25 11:29:46;;;;;;;5.63;3.60;;;;;;;26.65;48.60;100629.59;5057793;28;20431;-81
2022/06/25 11:32:14;;;;;;;6.38;3.17;;;;;;;26.60;48.73;100630.38;5070442;28;20047;-81
2022/06/25 11:34:43;;;;;;;6.25;3.30;;;;;;;26.26;48.77;100643.66;5056514;28;20113;-79
2022/06/25 11:37:11;;;;;;;6.93;3.28;;;;;;;26.13;49.52;100644.97;5068281;28;20040;-83
2022/06/25 11:39:37;;;;;;;5.72;3.00;;;;;;;26.65;48.03;100640.63;5026810;28;20037;-84
2022/06/25 11:42:05;;;;;;;4.70;2.85;;;;;;;25.80;50.32;100637.78;5069494;28;20052;-81
2022/06/25 11:44:45;;;;;;;3.80;3.00;;;;;;;26.21;49.34;100633.44;5034367;28;20241;-80
2022/06/25 11:47:22;;;;;;;7.45;3.08;;;;;;;26.46;49.25;100615.41;5049514;28;20150;-82
2022/06/25 11:49:48;;;;;;;6.70;3.83;;;;;;;26.98;48.37;100639.34;5046847;28;20057;-82